sensor_id;sensor_type;location;lat;lon;timestamp;P1;durP1;ratioP1;P2;durP2;ratioP2
56537;SDS011;42435;53.292;6.000;2022-09-06T00:00:59;6.03;;;4.60;;
56537;SDS011;42435;53.292;6.000;2022-09-06T00:03:25;8.35;;;4.43;;
56537;SDS011;42435;53.292;6.000;2022-09-06T00:05:54;6.25;;;3.78;;
56537;SDS011;42435;53.292;6.000;2022-09-06T00:08:19;4.55;;;4.07;;
56537;SDS011;42435;53.292;6.000;2022-09-06T00:10:45;7.32;;;4.15;;
56537;SDS011;42435;53.292;6.000;2022-09-06T00:13:11;4.78;;;4.28;;
56537;SDS011;42435;53.292;6.000;2022-09-06T00:15:37;5.20;;;3.80;;
56537;SDS011;42435;53.292;6.000;2022-09-06T00:18:04;7.75;;;4.18;;
56537;SDS011;42435;53.292;6.000;2022-09-06T00:20:31;7.15;;;4.10;;
56537;SDS011;42435;53.292;6.000;2022-09-06T00:22:59;6.45;;;4.38;;
56537;SDS011;42435;53.292;6.000;2022-09-06T00:25:27;4.15;;;3.65;;
56537;SDS011;42435;53.292;6.000;2022-09-06T00:27:57;6.40;;;4.22;;
56537;SDS011;42435;53.292;6.000;2022-09-06T00:30:24;4.53;;;4.13;;
56537;SDS011;42435;53.292;6.000;2022-09-06T00:32:52;5.18;;;4.20;;
56537;SDS011;42435;53.292;6.000;2022-09-06T00:35:19;3.75;;;3.45;;
56537;SDS011;42435;53.292;6.000;2022-09-06T00:37:46;5.53;;;3.85;;
56537;SDS011;42435;53.292;6.000;2022-09-06T00:40:13;4.93;;;4.38;;
56537;SDS011;42435;53.292;6.000;2022-09-06T00:42:39;5.97;;;4.30;;
56537;SDS011;42435;53.292;6.000;2022-09-06T00:45:05;7.57;;;4.65;;
56537;SDS011;42435;53.292;6.000;2022-09-06T00:47:33;4.50;;;4.10;;
56537;SDS011;42435;53.292;6.000;2022-09-06T00:50:00;5.18;;;3.78;;
56537;SDS011;42435;53.292;6.000;2022-09-06T00:52:27;4.50;;;3.50;;
56537;SDS011;42435;53.292;6.000;2022-09-06T00:54:54;9.13;;;4.43;;
56537;SDS011;42435;53.292;6.000;2022-09-06T00:57:20;8.23;;;4.47;;
56537;SDS011;42435;53.292;6.000;2022-09-06T00:59:51;6.13;;;3.80;;
56537;SDS011;42435;53.292;6.000;2022-09-06T01:02:18;4.38;;;3.72;;
56537;SDS011;42435;53.292;6.000;2022-09-06T01:04:44;8.20;;;4.25;;
56537;SDS011;42435;53.292;6.000;2022-09-06T01:18:52;5.38;;;4.30;;
56537;SDS011;42435;53.292;6.000;2022-09-06T01:24:09;4.25;;;3.85;;
56537;SDS011;42435;53.292;6.000;2022-09-06T01:27:01;8.93;;;4.25;;
56537;SDS011;42435;53.292;6.000;2022-09-06T01:29:49;5.53;;;4.40;;
56537;SDS011;42435;53.292;6.000;2022-09-06T01:32:28;6.55;;;4.65;;
56537;SDS011;42435;53.292;6.000;2022-09-06T01:35:32;5.93;;;4.50;;
56537;SDS011;42435;53.292;6.000;2022-09-06T01:38:02;6.72;;;4.70;;
56537;SDS011;42435;53.292;6.000;2022-09-06T01:40:29;6.53;;;4.15;;
56537;SDS011;42435;53.292;6.000;2022-09-06T01:42:59;6.15;;;4.03;;
56537;SDS011;42435;53.292;6.000;2022-09-06T01:45:30;6.78;;;5.00;;
56537;SDS011;42435;53.292;6.000;2022-09-06T01:59:09;4.65;;;4.05;;
56537;SDS011;42435;53.292;6.000;2022-09-06T02:04:35;6.53;;;4.85;;
56537;SDS011;42435;53.292;6.000;2022-09-06T02:07:07;4.93;;;4.43;;
56537;SDS011;42435;53.292;6.000;2022-09-06T02:09:40;6.20;;;5.10;;
56537;SDS011;42435;53.292;6.000;2022-09-06T02:12:11;4.93;;;4.43;;
56537;SDS011;42435;53.292;6.000;2022-09-06T02:15:12;8.15;;;5.30;;
56537;SDS011;42435;53.292;6.000;2022-09-06T02:17:39;6.57;;;5.25;;
56537;SDS011;42435;53.292;6.000;2022-09-06T02:20:15;6.93;;;4.65;;
56537;SDS011;42435;53.292;6.000;2022-09-06T02:22:45;6.25;;;5.25;;
56537;SDS011;42435;53.292;6.000;2022-09-06T02:25:14;8.52;;;4.80;;
56537;SDS011;42435;53.292;6.000;2022-09-06T02:27:45;6.30;;;4.28;;
56537;SDS011;42435;53.292;6.000;2022-09-06T02:30:11;8.05;;;5.15;;
56537;SDS011;42435;53.292;6.000;2022-09-06T02:32:38;5.95;;;4.55;;
56537;SDS011;42435;53.292;6.000;2022-09-06T02:35:10;5.95;;;4.78;;
56537;SDS011;42435;53.292;6.000;2022-09-06T02:37:38;5.95;;;4.95;;
56537;SDS011;42435;53.292;6.000;2022-09-06T02:40:05;5.55;;;5.00;;
56537;SDS011;42435;53.292;6.000;2022-09-06T02:42:34;6.68;;;5.15;;
56537;SDS011;42435;53.292;6.000;2022-09-06T02:44:59;7.45;;;5.47;;
56537;SDS011;42435;53.292;6.000;2022-09-06T02:47:25;6.93;;;5.13;;
56537;SDS011;42435;53.292;6.000;2022-09-06T02:49:51;5.93;;;5.00;;
56537;SDS011;42435;53.292;6.000;2022-09-06T02:52:16;6.57;;;4.88;;
56537;SDS011;42435;53.292;6.000;2022-09-06T02:54:42;6.55;;;5.15;;
56537;SDS011;42435;53.292;6.000;2022-09-06T02:57:07;7.78;;;5.32;;
56537;SDS011;42435;53.292;6.000;2022-09-06T02:59:33;5.72;;;4.63;;
56537;SDS011;42435;53.292;6.000;2022-09-06T03:01:58;7.72;;;4.78;;
56537;SDS011;42435;53.292;6.000;2022-09-06T03:04:24;6.97;;;5.10;;
56537;SDS011;42435;53.292;6.000;2022-09-06T03:06:49;7.60;;;5.07;;
56537;SDS011;42435;53.292;6.000;2022-09-06T03:09:15;6.85;;;4.75;;
56537;SDS011;42435;53.292;6.000;2022-09-06T03:11:40;7.03;;;5.68;;
56537;SDS011;42435;53.292;6.000;2022-09-06T03:14:06;5.95;;;5.03;;
56537;SDS011;42435;53.292;6.000;2022-09-06T03:16:32;7.70;;;5.28;;
56537;SDS011;42435;53.292;6.000;2022-09-06T03:18:57;6.68;;;4.80;;
56537;SDS011;42435;53.292;6.000;2022-09-06T03:21:23;7.20;;;4.93;;
56537;SDS011;42435;53.292;6.000;2022-09-06T03:23:48;6.90;;;4.70;;
56537;SDS011;42435;53.292;6.000;2022-09-06T03:26:15;6.32;;;5.28;;
56537;SDS011;42435;53.292;6.000;2022-09-06T03:28:40;8.70;;;4.93;;
56537;SDS011;42435;53.292;6.000;2022-09-06T03:31:07;9.25;;;5.68;;
56537;SDS011;42435;53.292;6.000;2022-09-06T03:33:32;8.82;;;4.97;;
56537;SDS011;42435;53.292;6.000;2022-09-06T03:35:58;6.68;;;5.22;;
56537;SDS011;42435;53.292;6.000;2022-09-06T03:38:27;7.35;;;4.90;;
56537;SDS011;42435;53.292;6.000;2022-09-06T03:40:53;7.70;;;5.00;;
56537;SDS011;42435;53.292;6.000;2022-09-06T03:43:19;8.63;;;5.85;;
56537;SDS011;42435;53.292;6.000;2022-09-06T03:45:48;6.07;;;5.28;;
56537;SDS011;42435;53.292;6.000;2022-09-06T03:48:18;10.20;;;5.15;;
56537;SDS011;42435;53.292;6.000;2022-09-06T03:50:45;6.57;;;5.68;;
56537;SDS011;42435;53.292;6.000;2022-09-06T03:53:12;6.50;;;5.15;;
56537;SDS011;42435;53.292;6.000;2022-09-06T03:55:38;5.95;;;5.30;;
56537;SDS011;42435;53.292;6.000;2022-09-06T03:58:03;6.25;;;5.63;;
56537;SDS011;42435;53.292;6.000;2022-09-06T04:00:29;6.47;;;5.47;;
56537;SDS011;42435;53.292;6.000;2022-09-06T04:02:57;9.68;;;5.97;;
56537;SDS011;42435;53.292;6.000;2022-09-06T04:05:23;7.97;;;6.03;;
56537;SDS011;42435;53.292;6.000;2022-09-06T04:07:49;7.60;;;5.65;;
56537;SDS011;42435;53.292;6.000;2022-09-06T04:10:14;6.28;;;5.28;;
56537;SDS011;42435;53.292;6.000;2022-09-06T04:12:40;7.25;;;4.93;;
56537;SDS011;42435;53.292;6.000;2022-09-06T04:15:06;5.30;;;4.80;;
56537;SDS011;42435;53.292;6.000;2022-09-06T04:17:31;7.82;;;5.43;;
56537;SDS011;42435;53.292;6.000;2022-09-06T04:19:57;6.93;;;5.38;;
56537;SDS011;42435;53.292;6.000;2022-09-06T04:22:23;8.30;;;5.45;;
56537;SDS011;42435;53.292;6.000;2022-09-06T04:24:48;9.10;;;5.50;;
56537;SDS011;42435;53.292;6.000;2022-09-06T04:27:14;8.00;;;5.00;;
56537;SDS011;42435;53.292;6.000;2022-09-06T04:29:39;7.78;;;5.38;;
56537;SDS011;42435;53.292;6.000;2022-09-06T04:32:05;5.97;;;5.25;;
56537;SDS011;42435;53.292;6.000;2022-09-06T04:34:31;5.53;;;5.03;;
56537;SDS011;42435;53.292;6.000;2022-09-06T04:36:57;7.00;;;5.80;;
56537;SDS011;42435;53.292;6.000;2022-09-06T04:39:22;11.55;;;5.63;;
56537;SDS011;42435;53.292;6.000;2022-09-06T04:41:48;7.90;;;5.78;;
56537;SDS011;42435;53.292;6.000;2022-09-06T04:44:14;8.20;;;5.85;;
56537;SDS011;42435;53.292;6.000;2022-09-06T04:46:40;6.20;;;5.13;;
56537;SDS011;42435;53.292;6.000;2022-09-06T04:49:06;8.25;;;6.55;;
56537;SDS011;42435;53.292;6.000;2022-09-06T04:51:32;7.72;;;5.93;;
56537;SDS011;42435;53.292;6.000;2022-09-06T04:53:57;5.85;;;5.22;;
56537;SDS011;42435;53.292;6.000;2022-09-06T04:56:23;7.47;;;6.35;;
56537;SDS011;42435;53.292;6.000;2022-09-06T04:58:51;7.18;;;5.82;;
56537;SDS011;42435;53.292;6.000;2022-09-06T05:01:17;7.55;;;6.47;;
56537;SDS011;42435;53.292;6.000;2022-09-06T05:03:44;7.57;;;6.30;;
56537;SDS011;42435;53.292;6.000;2022-09-06T05:06:11;10.20;;;7.28;;
56537;SDS011;42435;53.292;6.000;2022-09-06T05:08:42;8.43;;;6.28;;
56537;SDS011;42435;53.292;6.000;2022-09-06T05:11:07;7.68;;;5.93;;
56537;SDS011;42435;53.292;6.000;2022-09-06T05:13:35;7.45;;;6.38;;
56537;SDS011;42435;53.292;6.000;2022-09-06T05:16:04;9.07;;;6.45;;
56537;SDS011;42435;53.292;6.000;2022-09-06T05:18:31;12.02;;;6.00;;
56537;SDS011;42435;53.292;6.000;2022-09-06T05:20:57;8.15;;;6.18;;
56537;SDS011;42435;53.292;6.000;2022-09-06T05:23:23;7.80;;;5.95;;
56537;SDS011;42435;53.292;6.000;2022-09-06T05:25:49;7.05;;;6.35;;
56537;SDS011;42435;53.292;6.000;2022-09-06T05:28:15;6.80;;;6.03;;
56537;SDS011;42435;53.292;6.000;2022-09-06T05:30:41;9.57;;;6.55;;
56537;SDS011;42435;53.292;6.000;2022-09-06T05:33:07;8.23;;;6.65;;
56537;SDS011;42435;53.292;6.000;2022-09-06T05:35:34;8.50;;;5.78;;
56537;SDS011;42435;53.292;6.000;2022-09-06T05:37:59;7.85;;;6.32;;
56537;SDS011;42435;53.292;6.000;2022-09-06T05:40:25;6.65;;;5.97;;
56537;SDS011;42435;53.292;6.000;2022-09-06T05:42:50;7.82;;;7.03;;
56537;SDS011;42435;53.292;6.000;2022-09-06T05:45:16;7.45;;;6.50;;
56537;SDS011;42435;53.292;6.000;2022-09-06T05:47:41;8.63;;;6.78;;
56537;SDS011;42435;53.292;6.000;2022-09-06T05:50:07;8.52;;;7.30;;
56537;SDS011;42435;53.292;6.000;2022-09-06T05:52:33;9.48;;;6.68;;
56537;SDS011;42435;53.292;6.000;2022-09-06T05:54:59;9.52;;;7.18;;
56537;SDS011;42435;53.292;6.000;2022-09-06T05:57:25;7.43;;;6.63;;
56537;SDS011;42435;53.292;6.000;2022-09-06T05:59:51;9.45;;;6.63;;
56537;SDS011;42435;53.292;6.000;2022-09-06T06:02:20;8.50;;;6.95;;
56537;SDS011;42435;53.292;6.000;2022-09-06T06:04:46;8.55;;;7.10;;
56537;SDS011;42435;53.292;6.000;2022-09-06T06:07:11;12.00;;;8.73;;
56537;SDS011;42435;53.292;6.000;2022-09-06T06:09:37;7.32;;;6.53;;
56537;SDS011;42435;53.292;6.000;2022-09-06T06:12:03;10.65;;;6.70;;
56537;SDS011;42435;53.292;6.000;2022-09-06T06:14:28;7.68;;;6.63;;
56537;SDS011;42435;53.292;6.000;2022-09-06T06:16:54;10.85;;;7.55;;
56537;SDS011;42435;53.292;6.000;2022-09-06T06:19:20;9.50;;;7.15;;
56537;SDS011;42435;53.292;6.000;2022-09-06T06:21:45;10.93;;;7.60;;
56537;SDS011;42435;53.292;6.000;2022-09-06T06:24:11;12.93;;;9.10;;
56537;SDS011;42435;53.292;6.000;2022-09-06T06:26:36;10.85;;;7.80;;
56537;SDS011;42435;53.292;6.000;2022-09-06T06:29:02;9.52;;;7.90;;
56537;SDS011;42435;53.292;6.000;2022-09-06T06:31:30;9.00;;;8.05;;
56537;SDS011;42435;53.292;6.000;2022-09-06T06:33:57;11.30;;;8.48;;
56537;SDS011;42435;53.292;6.000;2022-09-06T06:36:25;10.10;;;7.90;;
56537;SDS011;42435;53.292;6.000;2022-09-06T06:38:54;11.98;;;9.18;;
56537;SDS011;42435;53.292;6.000;2022-09-06T06:41:21;9.68;;;8.27;;
56537;SDS011;42435;53.292;6.000;2022-09-06T06:43:52;12.40;;;8.90;;
56537;SDS011;42435;53.292;6.000;2022-09-06T06:46:19;8.98;;;6.97;;
56537;SDS011;42435;53.292;6.000;2022-09-06T06:48:47;9.00;;;7.10;;
56537;SDS011;42435;53.292;6.000;2022-09-06T06:51:13;9.75;;;7.93;;
56537;SDS011;42435;53.292;6.000;2022-09-06T06:53:41;11.40;;;8.90;;
56537;SDS011;42435;53.292;6.000;2022-09-06T06:56:18;8.98;;;7.70;;
56537;SDS011;42435;53.292;6.000;2022-09-06T06:58:46;10.90;;;8.80;;
56537;SDS011;42435;53.292;6.000;2022-09-06T07:01:13;9.57;;;7.82;;
56537;SDS011;42435;53.292;6.000;2022-09-06T07:03:42;11.57;;;7.55;;
56537;SDS011;42435;53.292;6.000;2022-09-06T07:06:08;9.57;;;8.25;;
56537;SDS011;42435;53.292;6.000;2022-09-06T07:08:34;13.27;;;9.00;;
56537;SDS011;42435;53.292;6.000;2022-09-06T07:11:01;11.90;;;8.77;;
56537;SDS011;42435;53.292;6.000;2022-09-06T07:13:27;13.27;;;9.52;;
56537;SDS011;42435;53.292;6.000;2022-09-06T07:16:05;12.25;;;9.30;;
56537;SDS011;42435;53.292;6.000;2022-09-06T07:18:31;13.82;;;9.43;;
56537;SDS011;42435;53.292;6.000;2022-09-06T07:20:56;11.65;;;8.85;;
56537;SDS011;42435;53.292;6.000;2022-09-06T07:23:22;13.07;;;9.63;;
56537;SDS011;42435;53.292;6.000;2022-09-06T07:25:49;16.90;;;9.18;;
56537;SDS011;42435;53.292;6.000;2022-09-06T07:28:14;10.45;;;8.98;;
56537;SDS011;42435;53.292;6.000;2022-09-06T07:30:40;11.82;;;8.70;;
56537;SDS011;42435;53.292;6.000;2022-09-06T07:33:06;11.50;;;9.00;;
56537;SDS011;42435;53.292;6.000;2022-09-06T07:35:33;10.88;;;8.57;;
56537;SDS011;42435;53.292;6.000;2022-09-06T07:37:59;12.50;;;9.32;;
56537;SDS011;42435;53.292;6.000;2022-09-06T07:40:26;12.15;;;9.38;;
56537;SDS011;42435;53.292;6.000;2022-09-06T07:42:57;10.25;;;8.55;;
56537;SDS011;42435;53.292;6.000;2022-09-06T07:45:23;10.93;;;9.52;;
56537;SDS011;42435;53.292;6.000;2022-09-06T07:47:56;14.73;;;8.88;;
56537;SDS011;42435;53.292;6.000;2022-09-06T07:50:25;11.13;;;8.73;;
56537;SDS011;42435;53.292;6.000;2022-09-06T07:52:52;10.85;;;8.90;;
56537;SDS011;42435;53.292;6.000;2022-09-06T07:55:18;11.55;;;8.45;;
56537;SDS011;42435;53.292;6.000;2022-09-06T07:57:43;9.20;;;7.82;;
56537;SDS011;42435;53.292;6.000;2022-09-06T08:00:09;8.88;;;8.02;;
56537;SDS011;42435;53.292;6.000;2022-09-06T08:02:36;10.73;;;9.10;;
56537;SDS011;42435;53.292;6.000;2022-09-06T08:05:02;12.02;;;8.32;;
56537;SDS011;42435;53.292;6.000;2022-09-06T08:07:28;9.82;;;8.25;;
56537;SDS011;42435;53.292;6.000;2022-09-06T08:09:53;15.68;;;9.02;;
56537;SDS011;42435;53.292;6.000;2022-09-06T08:12:19;12.95;;;8.48;;
56537;SDS011;42435;53.292;6.000;2022-09-06T08:14:45;11.55;;;8.45;;
56537;SDS011;42435;53.292;6.000;2022-09-06T08:17:10;8.85;;;7.93;;
56537;SDS011;42435;53.292;6.000;2022-09-06T08:19:36;8.43;;;7.25;;
56537;SDS011;42435;53.292;6.000;2022-09-06T08:22:02;10.20;;;8.07;;
56537;SDS011;42435;53.292;6.000;2022-09-06T08:24:28;11.48;;;7.82;;
56537;SDS011;42435;53.292;6.000;2022-09-06T08:26:53;10.00;;;8.43;;
56537;SDS011;42435;53.292;6.000;2022-09-06T08:29:19;10.18;;;8.13;;
56537;SDS011;42435;53.292;6.000;2022-09-06T08:31:45;10.55;;;8.57;;
56537;SDS011;42435;53.292;6.000;2022-09-06T08:34:11;10.10;;;8.20;;
56537;SDS011;42435;53.292;6.000;2022-09-06T08:36:38;10.25;;;9.23;;
56537;SDS011;42435;53.292;6.000;2022-09-06T08:39:05;9.70;;;7.97;;
56537;SDS011;42435;53.292;6.000;2022-09-06T08:41:36;8.98;;;7.97;;
56537;SDS011;42435;53.292;6.000;2022-09-06T08:44:22;10.98;;;8.00;;
56537;SDS011;42435;53.292;6.000;2022-09-06T08:46:54;11.35;;;7.85;;
56537;SDS011;42435;53.292;6.000;2022-09-06T08:49:26;10.20;;;7.60;;
56537;SDS011;42435;53.292;6.000;2022-09-06T08:52:13;8.95;;;7.97;;
56537;SDS011;42435;53.292;6.000;2022-09-06T08:55:00;9.30;;;7.30;;
56537;SDS011;42435;53.292;6.000;2022-09-06T08:58:26;11.75;;;8.23;;
56537;SDS011;42435;53.292;6.000;2022-09-06T09:00:49;9.95;;;8.23;;
56537;SDS011;42435;53.292;6.000;2022-09-06T09:03:23;10.18;;;7.63;;
56537;SDS011;42435;53.292;6.000;2022-09-06T09:05:53;9.55;;;8.55;;
56537;SDS011;42435;53.292;6.000;2022-09-06T09:08:21;9.27;;;8.32;;
56537;SDS011;42435;53.292;6.000;2022-09-06T09:13:29;9.68;;;7.70;;
56537;SDS011;42435;53.292;6.000;2022-09-06T09:16:04;7.78;;;6.95;;
56537;SDS011;42435;53.292;6.000;2022-09-06T09:18:36;8.93;;;8.05;;
56537;SDS011;42435;53.292;6.000;2022-09-06T09:21:06;10.25;;;8.20;;
56537;SDS011;42435;53.292;6.000;2022-09-06T09:23:34;8.82;;;7.50;;
56537;SDS011;42435;53.292;6.000;2022-09-06T09:26:09;7.00;;;6.30;;
56537;SDS011;42435;53.292;6.000;2022-09-06T09:28:38;9.40;;;8.30;;
56537;SDS011;42435;53.292;6.000;2022-09-06T09:31:36;9.10;;;7.78;;
56537;SDS011;42435;53.292;6.000;2022-09-06T09:34:03;8.20;;;7.07;;
56537;SDS011;42435;53.292;6.000;2022-09-06T09:36:34;8.13;;;7.10;;
56537;SDS011;42435;53.292;6.000;2022-09-06T09:39:00;7.78;;;7.03;;
56537;SDS011;42435;53.292;6.000;2022-09-06T09:41:36;11.73;;;8.18;;
56537;SDS011;42435;53.292;6.000;2022-09-06T09:44:05;9.25;;;7.85;;
56537;SDS011;42435;53.292;6.000;2022-09-06T09:46:35;8.52;;;6.97;;
56537;SDS011;42435;53.292;6.000;2022-09-06T09:49:05;7.75;;;6.90;;
56537;SDS011;42435;53.292;6.000;2022-09-06T09:51:33;11.20;;;6.82;;
56537;SDS011;42435;53.292;6.000;2022-09-06T09:54:02;9.30;;;7.18;;
56537;SDS011;42435;53.292;6.000;2022-09-06T09:56:34;8.45;;;7.57;;
56537;SDS011;42435;53.292;6.000;2022-09-06T09:59:14;7.57;;;6.22;;
56537;SDS011;42435;53.292;6.000;2022-09-06T10:01:43;11.02;;;6.32;;
56537;SDS011;42435;53.292;6.000;2022-09-06T10:04:11;7.03;;;6.13;;
56537;SDS011;42435;53.292;6.000;2022-09-06T10:06:43;9.10;;;5.88;;
56537;SDS011;42435;53.292;6.000;2022-09-06T10:09:55;8.38;;;7.53;;
56537;SDS011;42435;53.292;6.000;2022-09-06T10:12:00;7.75;;;6.65;;
56537;SDS011;42435;53.292;6.000;2022-09-06T10:14:27;8.85;;;7.18;;
56537;SDS011;42435;53.292;6.000;2022-09-06T10:17:07;7.43;;;6.72;;
56537;SDS011;42435;53.292;6.000;2022-09-06T10:19:43;6.85;;;6.25;;
56537;SDS011;42435;53.292;6.000;2022-09-06T10:22:21;8.45;;;7.53;;
56537;SDS011;42435;53.292;6.000;2022-09-06T10:24:54;8.50;;;7.70;;
56537;SDS011;42435;53.292;6.000;2022-09-06T10:27:29;8.07;;;6.90;;
56537;SDS011;42435;53.292;6.000;2022-09-06T10:30:00;7.60;;;6.90;;
56537;SDS011;42435;53.292;6.000;2022-09-06T10:32:40;10.02;;;6.53;;
56537;SDS011;42435;53.292;6.000;2022-09-06T10:40:58;8.27;;;6.75;;
56537;SDS011;42435;53.292;6.000;2022-09-06T10:43:30;8.30;;;6.25;;
56537;SDS011;42435;53.292;6.000;2022-09-06T10:46:10;8.05;;;6.60;;
56537;SDS011;42435;53.292;6.000;2022-09-06T10:48:41;6.95;;;6.25;;
56537;SDS011;42435;53.292;6.000;2022-09-06T10:53:55;7.70;;;7.00;;
56537;SDS011;42435;53.292;6.000;2022-09-06T11:01:54;6.90;;;6.00;;
56537;SDS011;42435;53.292;6.000;2022-09-06T11:06:56;8.52;;;5.90;;
56537;SDS011;42435;53.292;6.000;2022-09-06T11:09:32;4.88;;;4.40;;
56537;SDS011;42435;53.292;6.000;2022-09-06T11:12:10;5.15;;;4.65;;
56537;SDS011;42435;53.292;6.000;2022-09-06T11:14:56;4.03;;;3.65;;
56537;SDS011;42435;53.292;6.000;2022-09-06T11:17:29;3.72;;;3.42;;
56537;SDS011;42435;53.292;6.000;2022-09-06T11:20:04;4.70;;;3.58;;
56537;SDS011;42435;53.292;6.000;2022-09-06T11:22:44;8.40;;;4.60;;
56537;SDS011;42435;53.292;6.000;2022-09-06T11:28:09;5.30;;;4.53;;
56537;SDS011;42435;53.292;6.000;2022-09-06T11:30:44;5.20;;;4.45;;
56537;SDS011;42435;53.292;6.000;2022-09-06T11:33:22;5.68;;;4.70;;
56537;SDS011;42435;53.292;6.000;2022-09-06T11:35:50;5.45;;;4.40;;
56537;SDS011;42435;53.292;6.000;2022-09-06T11:38:22;4.70;;;4.10;;
56537;SDS011;42435;53.292;6.000;2022-09-06T11:40:53;5.97;;;4.37;;
56537;SDS011;42435;53.292;6.000;2022-09-06T11:43:42;5.03;;;4.15;;
56537;SDS011;42435;53.292;6.000;2022-09-06T11:46:55;5.03;;;3.90;;
56537;SDS011;42435;53.292;6.000;2022-09-06T11:51:32;4.47;;;3.92;;
56537;SDS011;42435;53.292;6.000;2022-09-06T11:54:10;4.43;;;3.72;;
56537;SDS011;42435;53.292;6.000;2022-09-06T11:57:00;5.60;;;4.75;;
56537;SDS011;42435;53.292;6.000;2022-09-06T11:59:52;5.40;;;4.45;;
56537;SDS011;42435;53.292;6.000;2022-09-06T12:02:36;8.15;;;5.30;;
56537;SDS011;42435;53.292;6.000;2022-09-06T12:15:57;6.40;;;5.68;;
56537;SDS011;42435;53.292;6.000;2022-09-06T12:21:31;7.47;;;5.68;;
56537;SDS011;42435;53.292;6.000;2022-09-06T12:24:01;9.38;;;6.00;;
56537;SDS011;42435;53.292;6.000;2022-09-06T12:29:16;7.45;;;6.75;;
56537;SDS011;42435;53.292;6.000;2022-09-06T12:31:50;6.75;;;5.95;;
56537;SDS011;42435;53.292;6.000;2022-09-06T12:34:20;10.70;;;7.72;;
56537;SDS011;42435;53.292;6.000;2022-09-06T12:36:55;9.43;;;7.38;;
56537;SDS011;42435;53.292;6.000;2022-09-06T12:39:25;9.00;;;7.07;;
56537;SDS011;42435;53.292;6.000;2022-09-06T12:41:55;7.57;;;6.88;;
56537;SDS011;42435;53.292;6.000;2022-09-06T12:44:28;7.32;;;5.85;;
56537;SDS011;42435;53.292;6.000;2022-09-06T12:47:03;8.38;;;6.47;;
56537;SDS011;42435;53.292;6.000;2022-09-06T12:49:34;8.18;;;6.40;;
56537;SDS011;42435;53.292;6.000;2022-09-06T12:52:41;9.82;;;6.85;;
56537;SDS011;42435;53.292;6.000;2022-09-06T12:54:52;6.90;;;6.20;;
56537;SDS011;42435;53.292;6.000;2022-09-06T12:57:19;7.60;;;6.93;;
56537;SDS011;42435;53.292;6.000;2022-09-06T12:59:50;6.13;;;5.45;;
56537;SDS011;42435;53.292;6.000;2022-09-06T13:02:29;5.45;;;4.38;;
56537;SDS011;42435;53.292;6.000;2022-09-06T13:05:07;6.05;;;4.13;;
56537;SDS011;42435;53.292;6.000;2022-09-06T13:07:37;3.97;;;2.85;;
56537;SDS011;42435;53.292;6.000;2022-09-06T13:10:08;3.25;;;2.85;;
56537;SDS011;42435;53.292;6.000;2022-09-06T13:12:38;4.30;;;2.83;;
56537;SDS011;42435;53.292;6.000;2022-09-06T13:15:10;3.47;;;2.70;;
56537;SDS011;42435;53.292;6.000;2022-09-06T13:17:49;4.05;;;2.90;;
56537;SDS011;42435;53.292;6.000;2022-09-06T13:20:21;3.38;;;2.17;;
56537;SDS011;42435;53.292;6.000;2022-09-06T13:22:47;3.25;;;2.95;;
56537;SDS011;42435;53.292;6.000;2022-09-06T13:25:24;3.10;;;2.60;;
56537;SDS011;42435;53.292;6.000;2022-09-06T13:27:50;3.35;;;2.60;;
56537;SDS011;42435;53.292;6.000;2022-09-06T13:30:29;2.65;;;2.45;;
56537;SDS011;42435;53.292;6.000;2022-09-06T13:32:56;3.38;;;3.05;;
56537;SDS011;42435;53.292;6.000;2022-09-06T13:35:22;3.75;;;2.60;;
56537;SDS011;42435;53.292;6.000;2022-09-06T13:37:50;2.92;;;2.65;;
56537;SDS011;42435;53.292;6.000;2022-09-06T13:40:58;2.60;;;2.40;;
56537;SDS011;42435;53.292;6.000;2022-09-06T13:43:10;3.65;;;2.38;;
56537;SDS011;42435;53.292;6.000;2022-09-06T13:45:37;2.95;;;2.67;;
56537;SDS011;42435;53.292;6.000;2022-09-06T13:48:03;3.85;;;2.63;;
56537;SDS011;42435;53.292;6.000;2022-09-06T13:50:29;2.92;;;2.63;;
56537;SDS011;42435;53.292;6.000;2022-09-06T13:52:56;2.70;;;2.35;;
56537;SDS011;42435;53.292;6.000;2022-09-06T13:55:22;3.03;;;2.33;;
56537;SDS011;42435;53.292;6.000;2022-09-06T13:57:52;3.00;;;2.78;;
56537;SDS011;42435;53.292;6.000;2022-09-06T14:00:17;5.68;;;3.08;;
56537;SDS011;42435;53.292;6.000;2022-09-06T14:02:43;3.42;;;3.03;;
56537;SDS011;42435;53.292;6.000;2022-09-06T14:05:10;5.03;;;3.40;;
56537;SDS011;42435;53.292;6.000;2022-09-06T14:07:36;4.85;;;3.53;;
56537;SDS011;42435;53.292;6.000;2022-09-06T14:10:01;4.85;;;3.53;;
56537;SDS011;42435;53.292;6.000;2022-09-06T14:12:27;3.92;;;2.85;;
56537;SDS011;42435;53.292;6.000;2022-09-06T14:14:53;4.60;;;2.78;;
56537;SDS011;42435;53.292;6.000;2022-09-06T14:17:19;4.05;;;2.85;;
56537;SDS011;42435;53.292;6.000;2022-09-06T14:19:45;5.63;;;3.80;;
56537;SDS011;42435;53.292;6.000;2022-09-06T14:22:11;2.80;;;2.60;;
56537;SDS011;42435;53.292;6.000;2022-09-06T14:24:37;3.10;;;2.17;;
56537;SDS011;42435;53.292;6.000;2022-09-06T14:27:03;2.40;;;2.20;;
56537;SDS011;42435;53.292;6.000;2022-09-06T14:29:31;2.40;;;2.20;;
56537;SDS011;42435;53.292;6.000;2022-09-06T14:31:58;3.28;;;2.17;;
56537;SDS011;42435;53.292;6.000;2022-09-06T14:34:23;2.95;;;1.70;;
56537;SDS011;42435;53.292;6.000;2022-09-06T14:36:49;3.22;;;1.50;;
56537;SDS011;42435;53.292;6.000;2022-09-06T14:39:15;2.72;;;1.40;;
56537;SDS011;42435;53.292;6.000;2022-09-06T14:41:41;1.35;;;0.98;;
56537;SDS011;42435;53.292;6.000;2022-09-06T14:44:07;1.25;;;1.05;;
56537;SDS011;42435;53.292;6.000;2022-09-06T14:46:33;1.77;;;1.50;;
56537;SDS011;42435;53.292;6.000;2022-09-06T14:49:00;2.30;;;1.30;;
56537;SDS011;42435;53.292;6.000;2022-09-06T14:51:27;3.75;;;1.42;;
56537;SDS011;42435;53.292;6.000;2022-09-06T14:53:56;1.90;;;1.38;;
56537;SDS011;42435;53.292;6.000;2022-09-06T14:56:23;1.58;;;1.45;;
56537;SDS011;42435;53.292;6.000;2022-09-06T14:58:50;1.48;;;1.20;;
56537;SDS011;42435;53.292;6.000;2022-09-06T15:01:21;2.35;;;1.52;;
56537;SDS011;42435;53.292;6.000;2022-09-06T15:03:50;2.85;;;1.38;;
56537;SDS011;42435;53.292;6.000;2022-09-06T15:06:18;2.42;;;1.58;;
56537;SDS011;42435;53.292;6.000;2022-09-06T15:08:45;1.60;;;1.45;;
56537;SDS011;42435;53.292;6.000;2022-09-06T15:11:12;1.45;;;1.35;;
56537;SDS011;42435;53.292;6.000;2022-09-06T15:13:39;2.63;;;1.30;;
56537;SDS011;42435;53.292;6.000;2022-09-06T15:16:06;3.78;;;1.42;;
56537;SDS011;42435;53.292;6.000;2022-09-06T15:18:33;1.75;;;1.42;;
56537;SDS011;42435;53.292;6.000;2022-09-06T15:21:09;2.05;;;1.45;;
56537;SDS011;42435;53.292;6.000;2022-09-06T15:23:35;2.53;;;1.83;;
56537;SDS011;42435;53.292;6.000;2022-09-06T15:26:01;2.22;;;1.88;;
56537;SDS011;42435;53.292;6.000;2022-09-06T15:28:26;2.13;;;1.92;;
56537;SDS011;42435;53.292;6.000;2022-09-06T15:30:52;3.28;;;1.92;;
56537;SDS011;42435;53.292;6.000;2022-09-06T15:33:17;2.15;;;1.25;;
56537;SDS011;42435;53.292;6.000;2022-09-06T15:35:43;3.22;;;1.75;;
56537;SDS011;42435;53.292;6.000;2022-09-06T15:38:09;2.35;;;1.75;;
56537;SDS011;42435;53.292;6.000;2022-09-06T15:40:36;1.77;;;1.65;;
56537;SDS011;42435;53.292;6.000;2022-09-06T15:43:02;2.55;;;1.98;;
56537;SDS011;42435;53.292;6.000;2022-09-06T15:45:28;6.80;;;1.90;;
56537;SDS011;42435;53.292;6.000;2022-09-06T15:47:54;1.80;;;1.52;;
56537;SDS011;42435;53.292;6.000;2022-09-06T15:50:20;3.88;;;2.17;;
56537;SDS011;42435;53.292;6.000;2022-09-06T15:52:47;2.83;;;2.20;;
56537;SDS011;42435;53.292;6.000;2022-09-06T15:55:12;2.92;;;2.15;;
56537;SDS011;42435;53.292;6.000;2022-09-06T15:57:57;3.40;;;2.05;;
56537;SDS011;42435;53.292;6.000;2022-09-06T16:00:22;4.65;;;2.28;;
56537;SDS011;42435;53.292;6.000;2022-09-06T16:02:48;3.00;;;2.05;;
56537;SDS011;42435;53.292;6.000;2022-09-06T16:05:14;2.45;;;2.13;;
56537;SDS011;42435;53.292;6.000;2022-09-06T16:07:40;3.63;;;2.38;;